WEATHER DATA

YESTERDAY
Time Temp. Dewp. Hum. Bar.
00:19 4.5 2.8 89 1010.1
00:30 4.6 2.9 89 1009.9
00:40 4.6 2.9 89 1010.1
00:50 4.7 3 89 1010
01:00 4.7 3 89 1009.9
01:10 4.7 3 89 1009.7
01:20 4.7 3 89 1009.8
01:30 4.7 3 89 1009.9
01:41 4.7 3 89 1009.7
01:50 4.7 3 89 1009.7
02:00 4.7 3.2 90 1009.7
02:11 4.8 3.3 90 1009.6
02:21 4.8 3.3 90 1009.7
02:31 4.8 3.5 91 1009.6
02:40 4.8 3.5 91 1009.7
02:51 4.8 3.5 91 1009.6
03:01 4.8 3.5 91 1009.6
03:11 4.8 3.5 91 1009.5
03:21 4.8 3.6 92 1009.1
03:32 4.8 3.6 92 1009
03:41 4.9 3.7 92 1008.6
03:51 5 3.8 92 1008.5
04:02 5.1 4.1 93 1008.4
04:12 5.2 4.2 93 1008.2
04:22 5.3 4.1 92 1008.1
04:32 5.3 4.1 92 1007.9
04:42 5.3 4.1 92 1007.8
04:52 5.4 4.2 92 1007.8
05:02 5.4 4.2 92 1007.8
05:13 5.4 4.2 92 1007.7
05:23 5.4 4.2 92 1007.6
05:32 5.3 4.1 92 1007.4
05:42 5.3 4.1 92 1007.2
05:53 5.4 4.2 92 1007.1
06:03 5.4 4.2 92 1007
06:13 5.5 4.3 92 1006.8
06:23 5.5 4.3 92 1006.9
06:33 5.5 4.3 92 1006.9
06:43 5.6 4.4 92 1006.9
06:53 5.6 4.4 92 1006.9
07:04 5.6 4.4 92 1006.8
07:13 5.6 4.4 92 1007
07:23 5.6 4.4 92 1007.1
07:33 5.5 4.5 93 1007
07:44 5.5 4.5 93 1006.9
07:54 5.4 4.5 94 1007
08:14 5.4 4.5 94 1007
08:24 5.4 4.5 94 1007.1
08:34 5.4 4.5 94 1007.3
08:44 5.4 4.5 94 1007.4
08:55 5.4 4.5 94 1007.4
09:04 5.4 4.5 94 1007.5
09:14 5.4 4.5 94 1007.6
09:25 5.5 4.6 94 1007.7
09:35 5.5 4.6 94 1008
09:45 5.5 4.6 94 1008.1
09:54 5.6 4.7 94 1008.2
10:05 5.6 4.7 94 1008.4
10:15 5.7 4.8 94 1008.5
10:25 5.8 4.9 94 1008.5
10:35 5.8 4.8 93 1008.7
10:45 5.9 4.9 93 1009.1
10:55 5.9 4.9 93 1008.9
11:05 6 4.8 92 1009.1
11:16 6.1 4.7 91 1009
11:26 6.2 4.5 89 1008.9
11:35 6.2 4.4 88 1008.9
11:46 6.3 4.6 89 1008.8
11:56 6.3 4.3 87 1008.9
12:06 6.1 4.4 89 1008.8
12:16 6 4.5 90 1008.6
12:26 6.1 4.7 91 1008.6
12:36 6.2 4.7 90 1008.7
12:46 6.3 4.3 87 1008.8
12:56 6.2 4.2 87 1008.9
13:07 6.2 4.4 88 1008.8
13:17 6.1 4.3 88 1008.7
13:26 6.1 4.3 88 1008.7
13:37 6.1 4.3 88 1008.6
13:47 6.1 4.3 88 1008.7
13:57 6.1 3.9 86 1008.7
14:07 6 3.8 86 1009
14:17 5.6 3.6 87 1008.8
14:27 5.3 3.3 87 1008.9
14:37 5.2 3.5 89 1008.8
14:48 5.1 3.4 89 1008.9
14:58 5.1 3.4 89 1008.9
15:07 5.1 3.4 89 1009
15:17 5.1 3.4 89 1009.3
15:28 5.1 3.4 89 1009.4
15:38 5.2 3.5 89 1009.7
15:48 5.2 3.4 88 1009.8
15:58 5.2 3.2 87 1009.9
16:08 5.2 3.2 87 1010
16:18 5.2 3.2 87 1010.1
16:28 5.1 3 86 1010.4
16:39 5 3 87 1010.8
16:49 4.8 3 88 1010.8
16:58 4.7 2.9 88 1011.1
17:08 4.4 2.6 88 1011.6
17:19 4 2.4 89 1011.7
17:29 3.7 2.2 90 1011.6
17:39 3.4 1.9 90 1011.7
17:49 3.2 1.7 90 1011.7
18:01 2.9 1.6 91 1012
18:11 2.8 1.6 92 1012.1
18:21 2.6 1.4 92 1012
18:31 2.5 1.3 92 1012.1
18:42 2.4 1.2 92 1012.3
18:52 2.4 1.4 93 1012.4
19:01 2.4 1.4 93 1012.5
19:12 2.4 1.5 94 1013.1
19:22 2.4 1.5 94 1013.1
19:32 2.4 1.5 94 1013.3
19:42 2.3 1.4 94 1013.6
19:52 2.2 1.3 94 1013.5
20:02 2.1 1.2 94 1013.7
20:12 2.1 1.2 94 1013.8
20:22 2 1.1 94 1014
20:33 2 1.1 94 1014.4
20:43 1.9 1 94 1014.4
20:52 1.9 1 94 1014.7
21:03 1.8 0.9 94 1014.9
21:13 1.8 0.9 94 1015.1
21:23 1.9 1 94 1015.3
21:33 1.9 1 94 1015.2
21:43 1.8 0.6 92 1015.5
21:53 1.7 0.5 92 1015.8
22:03 1.6 0.3 91 1015.9
22:14 1.5 0.2 91 1015.9
22:24 1.4 0.2 92 1016.2
22:33 1.3 0.1 92 1016.2
22:43 1.1 0 92 1016.2
22:54 1 -0.1 92 1016.3
23:04 0.8 -0.3 92 1016.4
23:14 0.6 -0.5 92 1016.5
23:24 0.5 -0.4 93 1016.5
23:34 0.5 -0.4 93 1016.6
23:44 0.4 -0.5 93 1016.9
23:54 0.4 -0.5 93 1016.9

DAY STATISTIC

2019-01-17
TEMPERATURE
AVERAGE
4.4
HIGH
6.3
11:46
LOW
0.4
23:44
PRESSURE
AVERAGE
1010.3
HIGH
1016.9
23:44
LOW
1006.8
06:13
DEWPOINT
AVERAGE
3.1
HIGH
4.9
10:25
LOW
-0.5
23:14
HUMIDITY
AVERAGE
91
HIGH
94
07:54
LOW
86
13:57
TEMPERATURE (°C)
LOW
0.4
HIGH
6.3
AVERAGE
4.4
PRESSURE (hpa)
LOW
1006.8
HIGH
1016.9
AVERAGE
1010.3
DEVICE